CheckWX is a tool to help pilots better visualize weather data.  It is not intended as a substitute for an official pre-flight weather briefing.

16:31:19 UTC

SAAR TAF
Islas Malvinas Airport
Rosario, Argentina
TAF SAAR 171100Z 1712/1812 23005KT 3000 DZ BR BKN005 OVC008 TX20/1718Z TN12/1810Z BECMG 1715/1717 20010KT 9999 BKN020 BECMG 1721/1723 9999 SCT035 BECMG 1801/1803 20005KT 8000 NSC TEMPO 1806/1811 5000 BR NSC

Oct-17@
12:00 UTC

Oct-17 @ 12:00 UTC

Oct-17@
15:00 UTC

Oct-17 @ 15:00 UTC

TAF SAAR 171100Z 1712/1812 23005KT 3000 DZ BR BKN005 OVC008 TX20/1718Z TN12/1810Z

Expired

Wind
  • 230° at 5 KTS
Conditions
Drizzle, Mist
Cloud Levels
  • Broken at 500' AGL
  • Overcast at 800' AGL

Oct-17@
15:00 UTC

Oct-17 @ 15:00 UTC

Oct-17@
21:00 UTC

Oct-17 @ 21:00 UTC

BECMG 1715/1717 20010KT 9999 BKN020

Becoming

Becoming Conditions expected by Thu, Oct 17, 2019 @ 17:00 UTC

Wind
  • 200° at 10 KTS
Conditions
Drizzle, Mist
Cloud Levels
  • Broken at 2,000' AGL

Oct-17@
21:00 UTC

Oct-17 @ 21:00 UTC

Oct-18@
01:00 UTC

Oct-18 @ 01:00 UTC

BECMG 1721/1723 9999 SCT035

Becoming

Becoming Conditions expected by Thu, Oct 17, 2019 @ 23:00 UTC

Wind
  • 200° at 10 KTS
Conditions
Drizzle, Mist
Cloud Levels
  • Scattered at 3,500' AGL

Oct-18@
01:00 UTC

Oct-18 @ 01:00 UTC

Oct-18@
12:00 UTC

Oct-18 @ 12:00 UTC

BECMG 1801/1803 20005KT 8000 NSC

Becoming

Becoming Conditions expected by Fri, Oct 18, 2019 @ 03:00 UTC

Wind
  • 200° at 5 KTS
Conditions
Drizzle, Mist
Cloud Levels
  • No significant clouds

Oct-18@
06:00 UTC

Oct-18 @ 06:00 UTC

Oct-18@
11:00 UTC

Oct-18 @ 11:00 UTC

TEMPO 1806/1811 5000 BR NSC

Temporary

Temporary Changes expected for less than half the time period

Conditions
Mist
Cloud Levels
  • No significant clouds